createdAt,value
2022-11-20T00:01:57.740Z,0.00
2022-11-20T00:07:29.417Z,0.00
2022-11-20T00:13:01.111Z,0.00
2022-11-20T00:18:32.930Z,0.00
2022-11-20T00:24:04.578Z,0.00
2022-11-20T00:29:36.500Z,0.00
2022-11-20T00:35:08.184Z,0.00
2022-11-20T00:40:40.367Z,0.00
2022-11-20T00:46:12.434Z,0.00
2022-11-20T00:51:43.851Z,0.00
2022-11-20T00:57:15.696Z,0.00
2022-11-20T01:02:47.685Z,0.00
2022-11-20T01:08:19.462Z,0.00
2022-11-20T01:13:51.109Z,0.00
2022-11-20T01:19:23.095Z,0.00
2022-11-20T01:24:54.601Z,0.00
2022-11-20T01:30:26.702Z,0.00
2022-11-20T01:35:58.243Z,0.00
2022-11-20T01:41:30.023Z,0.00
2022-11-20T01:47:01.840Z,0.00
2022-11-20T01:52:33.904Z,0.00
2022-11-20T01:58:05.511Z,0.00
2022-11-20T02:03:37.261Z,0.00
2022-11-20T02:09:08.962Z,0.00
2022-11-20T02:14:41.014Z,0.00
2022-11-20T02:20:12.356Z,0.00
2022-11-20T02:25:43.895Z,0.00
2022-11-20T02:31:15.869Z,0.00
2022-11-20T02:36:47.482Z,0.00
2022-11-20T02:42:19.304Z,0.00
2022-11-20T02:47:51.116Z,0.00
2022-11-20T02:53:22.824Z,0.00
2022-11-20T02:58:54.637Z,0.00
2022-11-20T03:04:26.994Z,0.00
2022-11-20T03:09:59.068Z,0.00
2022-11-20T03:15:31.001Z,0.00
2022-11-20T03:21:02.770Z,0.00
2022-11-20T03:26:34.570Z,0.00
2022-11-20T03:32:06.589Z,0.00
2022-11-20T03:37:38.332Z,0.00
2022-11-20T03:43:10.550Z,0.00
2022-11-20T03:48:43.106Z,0.00
2022-11-20T03:54:14.210Z,0.00
2022-11-20T04:05:16.073Z,0.00
2022-11-20T04:10:48.078Z,0.00
2022-11-20T04:16:19.711Z,0.00
2022-11-20T04:21:51.600Z,0.00
2022-11-20T04:27:23.799Z,0.00
2022-11-20T04:32:55.832Z,0.00
2022-11-20T04:38:28.094Z,0.00
2022-11-20T04:44:00.561Z,0.00
2022-11-20T04:49:32.138Z,0.00
2022-11-20T04:55:04.435Z,0.00
2022-11-20T05:00:36.565Z,0.00
2022-11-20T05:06:08.548Z,0.00
2022-11-20T05:11:40.268Z,0.00
2022-11-20T05:17:12.007Z,0.00
2022-11-20T05:22:43.824Z,0.00
2022-11-20T05:28:15.947Z,0.00
2022-11-20T05:33:47.799Z,0.00
2022-11-20T05:39:20.194Z,0.00
2022-11-20T05:44:51.592Z,0.00
2022-11-20T05:50:23.678Z,0.00
2022-11-20T05:55:55.476Z,0.00
2022-11-20T06:01:27.300Z,0.00
2022-11-20T06:06:59.275Z,0.00
2022-11-20T06:12:31.300Z,0.00
2022-11-20T06:18:03.153Z,0.00
2022-11-20T06:23:35.299Z,1.00
2022-11-20T06:29:07.552Z,5.00
2022-11-20T06:34:39.769Z,11.00
2022-11-20T06:40:12.042Z,15.00
2022-11-20T06:45:44.184Z,11.00
2022-11-20T06:51:16.572Z,10.00
2022-11-20T06:56:48.439Z,15.00
2022-11-20T07:02:20.404Z,19.00
2022-11-20T07:07:52.808Z,26.50
2022-11-20T07:13:24.943Z,23.10
2022-11-20T07:18:57.150Z,25.45
2022-11-20T07:24:29.042Z,25.45
2022-11-20T07:30:00.797Z,27.10
2022-11-20T07:35:32.574Z,29.10
2022-11-20T07:41:04.389Z,23.35
2022-11-20T07:46:36.728Z,22.75
2022-11-20T07:48:48.701Z,24.70
2022-11-20T07:54:20.541Z,24.40
2022-11-20T07:59:52.404Z,29.35
2022-11-20T08:05:24.287Z,28.35
2022-11-20T08:10:56.043Z,29.00
2022-11-20T08:16:27.824Z,26.35
2022-11-20T08:21:59.597Z,26.65
2022-11-20T08:27:31.310Z,27.95
2022-11-20T08:33:03.344Z,30.30
2022-11-20T08:38:35.106Z,29.95
2022-11-20T08:44:06.772Z,29.95
2022-11-20T08:49:38.675Z,25.55
2022-11-20T08:55:10.560Z,29.95
2022-11-20T09:00:42.240Z,27.35
2022-11-20T09:06:13.966Z,29.65
2022-11-20T09:11:46.400Z,25.90
2022-11-20T09:17:17.896Z,22.95
2022-11-20T09:22:49.837Z,17.35
2022-11-20T09:28:21.669Z,27.35
2022-11-20T09:33:53.508Z,25.65
2022-11-20T09:39:25.500Z,23.55
2022-11-20T09:44:57.124Z,30.30
2022-11-20T09:50:28.862Z,34.05
2022-11-20T09:56:00.615Z,27.00
2022-11-20T10:01:32.929Z,35.70
2022-11-20T10:07:30.991Z,41.50
2022-11-20T10:12:36.708Z,40.15
2022-11-20T10:18:08.431Z,34.95
2022-11-20T10:23:40.267Z,27.10
2022-11-20T10:29:12.000Z,41.75
2022-11-20T10:34:43.693Z,30.20
2022-11-20T10:40:15.510Z,25.30
2022-11-20T10:45:47.787Z,30.85
2022-11-20T10:51:19.821Z,37.55
2022-11-20T10:56:51.347Z,28.05
2022-11-20T11:02:23.241Z,31.70
2022-11-20T11:07:54.923Z,34.85
2022-11-20T11:13:27.299Z,47.50
2022-11-20T11:18:59.248Z,36.85
2022-11-20T11:24:46.259Z,34.15
2022-11-20T11:30:02.719Z,47.20
2022-11-20T11:35:34.550Z,33.80
2022-11-20T11:41:05.884Z,39.15
2022-11-20T11:46:37.918Z,47.80
2022-11-20T11:52:09.618Z,41.40
2022-11-20T11:57:41.144Z,45.95
2022-11-20T12:03:12.839Z,42.45
2022-11-20T12:08:44.662Z,27.35
2022-11-20T12:14:16.983Z,32.40
2022-11-20T12:19:48.632Z,23.60
2022-11-20T12:25:20.386Z,30.70
2022-11-20T12:30:52.198Z,33.30
2022-11-20T12:36:23.845Z,32.25
2022-11-20T12:41:55.975Z,34.00
2022-11-20T12:47:27.535Z,27.95
2022-11-20T12:52:59.561Z,30.35
2022-11-20T12:58:31.122Z,27.65
2022-11-20T13:04:10.563Z,29.35
2022-11-20T13:09:40.200Z,31.30
2022-11-20T13:15:11.946Z,32.40
2022-11-20T13:20:43.262Z,26.30
2022-11-20T13:26:15.113Z,26.30
2022-11-20T13:31:46.979Z,27.65
2022-11-20T13:37:18.748Z,31.00
2022-11-20T13:42:50.525Z,29.00
2022-11-20T13:48:22.337Z,27.75
2022-11-20T13:53:53.995Z,30.40
2022-11-20T13:59:25.889Z,29.10
2022-11-20T14:04:57.905Z,24.40
2022-11-20T14:10:32.159Z,25.35
2022-11-20T14:16:01.186Z,25.70
2022-11-20T14:21:33.065Z,23.75
2022-11-20T14:27:04.676Z,22.40
2022-11-20T14:32:35.988Z,28.10
2022-11-20T14:38:07.208Z,23.10
2022-11-20T14:43:38.643Z,20.45
2022-11-20T14:49:10.329Z,24.10
2022-11-20T14:54:41.704Z,25.05
2022-11-20T15:00:13.456Z,22.15
2022-11-20T15:05:45.233Z,22.05
2022-11-20T15:11:17.154Z,19.05
2022-11-20T15:16:48.801Z,9.00
2022-11-20T15:22:20.695Z,7.00
2022-11-20T15:27:52.308Z,0.00
2022-11-20T15:33:24.132Z,0.00
2022-11-20T15:38:55.907Z,0.00
2022-11-20T15:44:27.714Z,0.00
2022-11-20T15:49:59.548Z,0.00
2022-11-20T15:55:30.611Z,0.00
2022-11-20T16:01:02.255Z,0.00
2022-11-20T16:06:33.994Z,0.00
2022-11-20T16:12:05.802Z,0.00
2022-11-20T16:17:37.735Z,0.00
2022-11-20T16:23:09.389Z,0.00
2022-11-20T16:28:41.205Z,0.00
2022-11-20T16:34:13.119Z,0.00
2022-11-20T16:39:45.065Z,0.00
2022-11-20T16:45:21.478Z,0.00
2022-11-20T16:50:47.937Z,0.00
2022-11-20T16:56:19.893Z,0.00
2022-11-20T17:01:51.822Z,0.00
2022-11-20T17:07:23.868Z,0.00
2022-11-20T17:12:55.381Z,0.00
2022-11-20T17:18:27.279Z,0.00
2022-11-20T17:23:59.116Z,0.00
2022-11-20T17:29:30.722Z,0.00
2022-11-20T17:35:02.401Z,0.00
2022-11-20T17:40:34.378Z,0.00
2022-11-20T17:46:05.997Z,0.00
2022-11-20T17:51:37.900Z,0.00
2022-11-20T17:57:09.714Z,0.00
2022-11-20T18:02:41.491Z,0.00
2022-11-20T18:08:13.227Z,0.00
2022-11-20T18:13:47.756Z,0.00
2022-11-20T18:19:16.713Z,0.00
2022-11-20T18:24:48.645Z,0.00
2022-11-20T18:30:20.631Z,0.00
2022-11-20T18:35:52.359Z,0.00
2022-11-20T18:41:24.249Z,0.00
2022-11-20T18:46:55.802Z,0.00
2022-11-20T18:52:27.437Z,0.00
2022-11-20T18:57:59.118Z,0.00
2022-11-20T19:03:30.942Z,0.00
2022-11-20T19:09:02.683Z,0.00
2022-11-20T19:14:34.708Z,0.00
2022-11-20T19:20:06.368Z,0.00
2022-11-20T19:25:38.481Z,0.00
2022-11-20T19:31:10.057Z,0.00
2022-11-20T19:36:44.708Z,0.00
2022-11-20T19:42:13.303Z,0.00
2022-11-20T19:53:16.771Z,0.00
2022-11-20T19:58:48.784Z,0.00
2022-11-20T20:04:20.445Z,0.00
2022-11-20T20:09:52.230Z,0.00
2022-11-20T20:15:24.074Z,0.00
2022-11-20T20:20:59.645Z,0.00
2022-11-20T20:26:27.926Z,0.00
2022-11-20T20:32:00.314Z,0.00
2022-11-20T20:37:32.210Z,0.00
2022-11-20T20:43:03.971Z,0.00
2022-11-20T20:48:35.715Z,0.00
2022-11-20T20:54:07.624Z,0.00
2022-11-20T20:59:39.115Z,0.00
2022-11-20T21:01:50.437Z,0.00
2022-11-20T21:07:21.737Z,0.00
2022-11-20T21:12:53.502Z,0.00
2022-11-20T21:18:25.253Z,0.00
2022-11-20T21:23:57.001Z,0.00
2022-11-20T21:29:28.845Z,0.00
2022-11-20T21:35:00.212Z,0.00
2022-11-20T21:40:32.048Z,0.00
2022-11-20T21:46:03.811Z,0.00
2022-11-20T21:51:35.442Z,0.00
2022-11-20T21:57:06.860Z,0.00
2022-11-20T22:02:38.612Z,0.00
2022-11-20T22:08:10.435Z,0.00
2022-11-20T22:13:42.388Z,0.00
2022-11-20T22:19:14.100Z,0.00
2022-11-20T22:24:46.182Z,0.00
2022-11-20T22:30:17.741Z,0.00
2022-11-20T22:35:49.503Z,0.00
2022-11-20T22:41:21.387Z,0.00
2022-11-20T22:46:54.066Z,0.00
2022-11-20T22:52:25.853Z,0.00
2022-11-20T22:57:57.873Z,0.00
2022-11-20T23:03:31.242Z,0.00
2022-11-20T23:09:02.663Z,0.00
2022-11-20T23:14:34.176Z,0.00
2022-11-20T23:20:05.901Z,0.00
2022-11-20T23:25:37.763Z,0.00
2022-11-20T23:31:09.397Z,0.00
2022-11-20T23:36:41.205Z,0.00
2022-11-20T23:42:13.004Z,0.00
2022-11-20T23:47:44.873Z,0.00
2022-11-20T23:53:16.531Z,0.00
2022-11-20T23:58:54.348Z,0.00
